Time;durP1;ratioP1;P1;durP2;ratioP2;P2;SDS_P1;SDS_P2;PMS_P1;PMS_P2;Temp;Humidity;BMP_temperature;BMP_pressure;BME280_temperature;BME280_humidity;BME280_pressure;Samples;Min_cycle;Max_cycle;Signal;HPM_P1;HPM_P2
2022/09/28 00:02:04;;;;;;;0.98;0.50;;;;;;;;;;5065274;28;20032;-41
2022/09/28 00:04:32;;;;;;;0.50;0.40;;;;;;;;;;5065025;28;20055;-41
2022/09/28 00:06:58;;;;;;;0.88;0.50;;;;;;;;;;5065926;28;20021;-41
2022/09/28 00:09:24;;;;;;;1.33;0.60;;;;;;;;;;5065242;28;20078;-41
2022/09/28 00:11:52;;;;;;;1.17;0.50;;;;;;;;;;5065094;28;20464;-41
2022/09/28 00:14:18;;;;;;;0.90;0.40;;;;;;;;;;5065363;28;20069;-41
2022/09/28 00:16:44;;;;;;;2.47;0.60;;;;;;;;;;5064770;28;20104;-41
2022/09/28 00:19:11;;;;;;;1.63;0.50;;;;;;;;;;5065087;28;20017;-41
2022/09/28 00:21:38;;;;;;;1.65;0.40;;;;;;;;;;5064724;28;20182;-41
2022/09/28 00:24:11;;;;;;;1.00;0.45;;;;;;;;;;5064811;28;20095;-41
2022/09/28 00:26:37;;;;;;;0.57;0.50;;;;;;;;;;5063367;28;20178;-41
2022/09/28 00:29:04;;;;;;;0.45;0.30;;;;;;;;;;5065041;28;20063;-42
2022/09/28 00:31:32;;;;;;;1.35;0.40;;;;;;;;;;5064694;28;20115;-41
2022/09/28 00:33:59;;;;;;;0.52;0.32;;;;;;;;;;5065175;28;20028;-41
2022/09/28 00:36:27;;;;;;;0.68;0.50;;;;;;;;;;5065710;28;20020;-41
2022/09/28 00:38:54;;;;;;;1.35;0.43;;;;;;;;;;5064718;28;20021;-41
2022/09/28 00:41:20;;;;;;;0.43;0.43;;;;;;;;;;5065119;28;20036;-41
2022/09/28 00:43:46;;;;;;;0.52;0.50;;;;;;;;;;5064645;28;20193;-41
2022/09/28 00:46:18;;;;;;;0.47;0.40;;;;;;;;;;5064960;28;20032;-41
2022/09/28 00:49:04;;;;;;;0.57;0.40;;;;;;;;;;5064440;28;20036;-42
2022/09/28 00:51:31;;;;;;;0.35;0.35;;;;;;;;;;5064649;28;20488;-41
2022/09/28 00:53:59;;;;;;;0.70;0.40;;;;;;;;;;5065498;28;20427;-41
2022/09/28 00:56:28;;;;;;;1.45;0.50;;;;;;;;;;5065404;28;20024;-41
2022/09/28 00:58:54;;;;;;;1.67;0.82;;;;;;;;;;5065137;28;20025;-41
2022/09/28 01:01:21;;;;;;;0.70;0.45;;;;;;;;;;5065060;28;20032;-41
2022/09/28 01:03:47;;;;;;;1.27;0.50;;;;;;;;;;5064326;28;20035;-41
2022/09/28 01:06:19;;;;;;;0.40;0.40;;;;;;;;;;5064566;28;20110;-41
2022/09/28 01:08:46;;;;;;;0.82;0.43;;;;;;;;;;5064427;28;20052;-41
2022/09/28 01:11:12;;;;;;;0.50;0.40;;;;;;;;;;5064509;28;20552;-41
2022/09/28 01:13:39;;;;;;;0.60;0.47;;;;;;;;;;5064246;28;20029;-41
2022/09/28 01:16:19;;;;;;;1.15;0.40;;;;;;;;;;5064567;28;20496;-41
2022/09/28 01:18:51;;;;;;;1.60;0.57;;;;;;;;;;5064069;28;20100;-41
2022/09/28 01:21:21;;;;;;;2.00;0.93;;;;;;;;;;5064470;28;20035;-41
2022/09/28 01:24:11;;;;;;;0.55;0.35;;;;;;;;;;5063998;28;20047;-41
2022/09/28 01:26:46;;;;;;;0.60;0.50;;;;;;;;;;5064318;28;20407;-41
2022/09/28 01:29:32;;;;;;;1.13;0.45;;;;;;;;;;5064588;28;20040;-41
2022/09/28 01:32:21;;;;;;;0.90;0.43;;;;;;;;;;5063236;28;20020;-41
2022/09/28 01:34:55;;;;;;;0.55;0.47;;;;;;;;;;5064016;28;20413;-41
2022/09/28 01:37:26;;;;;;;2.22;1.05;;;;;;;;;;5064442;28;20025;-41
2022/09/28 01:39:53;;;;;;;1.85;0.68;;;;;;;;;;5064070;28;20028;-41
2022/09/28 01:42:21;;;;;;;0.68;0.55;;;;;;;;;;5062773;28;20467;-41
2022/09/28 01:44:50;;;;;;;2.08;0.55;;;;;;;;;;5067009;28;20024;-41
2022/09/28 01:47:19;;;;;;;1.38;0.40;;;;;;;;;;5067937;28;20025;-41
2022/09/28 01:49:47;;;;;;;0.88;0.40;;;;;;;;;;5067488;28;20021;-41
2022/09/28 01:52:28;;;;;;;0.60;0.30;;;;;;;;;;5068311;28;20028;-41
2022/09/28 01:55:10;;;;;;;0.77;0.40;;;;;;;;;;5068208;28;20028;-41
2022/09/28 01:57:45;;;;;;;2.13;0.60;;;;;;;;;;5067787;28;20086;-41
2022/09/28 02:00:13;;;;;;;0.82;0.47;;;;;;;;;;5067647;28;20522;-41
2022/09/28 02:02:59;;;;;;;0.63;0.40;;;;;;;;;;5067158;28;20491;-41
2022/09/28 02:05:35;;;;;;;1.67;0.52;;;;;;;;;;5068225;28;20035;-41
2022/09/28 02:08:06;;;;;;;2.17;0.47;;;;;;;;;;5067557;28;20408;-41
2022/09/28 02:10:35;;;;;;;1.48;0.95;;;;;;;;;;5067340;28;20385;-41
2022/09/28 02:13:04;;;;;;;1.40;0.57;;;;;;;;;;5067599;28;20021;-41
2022/09/28 02:15:33;;;;;;;3.78;1.23;;;;;;;;;;5067606;28;20086;-41
2022/09/28 02:18:00;;;;;;;1.02;0.50;;;;;;;;;;5068391;28;20024;-41
2022/09/28 02:20:29;;;;;;;2.30;0.40;;;;;;;;;;5067959;28;20028;-41
2022/09/28 02:22:57;;;;;;;2.25;0.70;;;;;;;;;;5067678;28;20033;-41
2022/09/28 02:25:44;;;;;;;1.60;0.60;;;;;;;;;;5067424;28;20029;-41
2022/09/28 02:28:12;;;;;;;2.10;0.70;;;;;;;;;;5067226;28;20041;-41
2022/09/28 02:30:39;;;;;;;1.15;0.50;;;;;;;;;;5066742;28;20457;-41
2022/09/28 02:33:12;;;;;;;1.60;0.60;;;;;;;;;;5066641;28;20025;-41
2022/09/28 02:35:39;;;;;;;2.53;0.60;;;;;;;;;;5067167;28;20024;-41
2022/09/28 02:38:05;;;;;;;1.63;0.52;;;;;;;;;;5067421;28;20539;-41
2022/09/28 02:40:32;;;;;;;1.05;0.50;;;;;;;;;;5066962;28;20518;-41
2022/09/28 02:43:28;;;;;;;1.17;0.50;;;;;;;;;;5067394;28;20028;-41
2022/09/28 02:46:11;;;;;;;2.67;0.73;;;;;;;;;;5011893;28;20045;-42
2022/09/28 02:48:46;;;;;;;0.82;0.47;;;;;;;;;;5066433;28;20038;-41
2022/09/28 02:51:17;;;;;;;1.48;0.60;;;;;;;;;;5066683;28;20078;-41
2022/09/28 02:53:43;;;;;;;2.35;0.77;;;;;;;;;;5066240;28;20028;-41
2022/09/28 02:56:27;;;;;;;1.20;0.60;;;;;;;;;;5065125;28;20017;-41
2022/09/28 02:59:06;;;;;;;1.73;0.52;;;;;;;;;;5066514;28;20086;-41
2022/09/28 03:01:32;;;;;;;0.93;0.55;;;;;;;;;;5066084;28;20179;-41
2022/09/28 03:04:11;;;;;;;1.92;0.70;;;;;;;;;;5066710;28;20040;-41
2022/09/28 03:06:41;;;;;;;1.67;0.70;;;;;;;;;;5066448;28;20051;-41
2022/09/28 03:09:07;;;;;;;2.17;0.70;;;;;;;;;;5066662;28;20097;-41
2022/09/28 03:11:35;;;;;;;1.98;0.70;;;;;;;;;;5066101;28;20037;-41
2022/09/28 03:14:03;;;;;;;0.90;0.40;;;;;;;;;;5066740;28;20048;-41
2022/09/28 03:16:30;;;;;;;2.53;0.75;;;;;;;;;;5075202;28;20024;-41
2022/09/28 03:18:57;;;;;;;2.47;0.77;;;;;;;;;;5087198;28;20016;-41
2022/09/28 03:21:23;;;;;;;1.05;0.60;;;;;;;;;;5086253;28;20026;-41
2022/09/28 03:23:49;;;;;;;1.00;0.45;;;;;;;;;;5086578;28;20035;-41
2022/09/28 03:26:15;;;;;;;1.00;0.52;;;;;;;;;;5086465;28;20050;-41
2022/09/28 03:28:41;;;;;;;0.88;0.40;;;;;;;;;;5085871;28;20035;-41
2022/09/28 03:31:08;;;;;;;1.40;0.50;;;;;;;;;;5086051;28;20067;-41
2022/09/28 03:33:34;;;;;;;0.50;0.50;;;;;;;;;;5085821;28;20035;-41
2022/09/28 03:36:00;;;;;;;1.15;0.50;;;;;;;;;;5086162;28;20027;-41
2022/09/28 03:38:26;;;;;;;1.40;0.80;;;;;;;;;;5086557;28;20069;-41
2022/09/28 03:40:53;;;;;;;2.80;0.75;;;;;;;;;;5086259;28;20028;-41
2022/09/28 03:43:20;;;;;;;2.78;0.65;;;;;;;;;;5085964;28;20055;-41
2022/09/28 03:45:56;;;;;;;1.80;0.80;;;;;;;;;;5084160;28;20034;-41
2022/09/28 03:48:23;;;;;;;1.10;0.60;;;;;;;;;;5085865;28;20060;-41
2022/09/28 03:50:51;;;;;;;1.17;0.65;;;;;;;;;;5065913;28;20032;-41
2022/09/28 03:53:18;;;;;;;1.08;0.60;;;;;;;;;;5065332;28;20359;-41
2022/09/28 03:55:45;;;;;;;0.82;0.50;;;;;;;;;;5063928;28;20028;-41
2022/09/28 03:58:12;;;;;;;3.83;0.60;;;;;;;;;;5065437;28;20033;-41
2022/09/28 04:00:38;;;;;;;1.92;0.70;;;;;;;;;;5064981;28;20415;-41
2022/09/28 04:03:04;;;;;;;2.05;0.60;;;;;;;;;;5066231;28;20449;-41
2022/09/28 04:05:30;;;;;;;1.38;0.60;;;;;;;;;;5065831;28;20320;-41
2022/09/28 04:07:56;;;;;;;1.00;0.65;;;;;;;;;;5064692;28;20032;-41
2022/09/28 04:10:24;;;;;;;2.05;0.80;;;;;;;;;;5064920;28;20028;-41
2022/09/28 04:12:53;;;;;;;2.17;0.60;;;;;;;;;;5065122;28;20032;-41
2022/09/28 04:15:19;;;;;;;2.13;0.80;;;;;;;;;;5064635;28;20012;-41
2022/09/28 04:17:47;;;;;;;2.28;0.70;;;;;;;;;;5065296;28;20492;-41
2022/09/28 04:20:13;;;;;;;1.83;0.73;;;;;;;;;;5065117;28;20016;-41
2022/09/28 04:22:40;;;;;;;2.17;0.70;;;;;;;;;;5064711;28;20039;-41
2022/09/28 04:25:06;;;;;;;2.05;0.80;;;;;;;;;;5065084;28;20035;-41
2022/09/28 04:30:18;;;;;;;1.38;0.50;;;;;;;;;;5064661;28;20089;-41
2022/09/28 04:32:46;;;;;;;2.03;0.80;;;;;;;;;;5064875;28;20022;-41
2022/09/28 04:35:13;;;;;;;1.80;0.70;;;;;;;;;;5063722;28;20411;-41
2022/09/28 04:37:39;;;;;;;2.72;0.70;;;;;;;;;;5064559;28;20032;-41
2022/09/28 04:40:05;;;;;;;4.18;0.75;;;;;;;;;;5065273;28;20024;-41
2022/09/28 04:42:31;;;;;;;2.60;0.82;;;;;;;;;;5065113;28;20037;-41
2022/09/28 04:44:57;;;;;;;3.00;0.85;;;;;;;;;;5064407;28;20032;-41
2022/09/28 04:47:24;;;;;;;1.05;0.68;;;;;;;;;;5064747;28;20036;-41
2022/09/28 04:49:50;;;;;;;0.93;0.60;;;;;;;;;;5064554;28;20099;-41
2022/09/28 04:52:16;;;;;;;2.03;0.63;;;;;;;;;;5064697;28;20045;-41
2022/09/28 04:54:42;;;;;;;1.30;0.50;;;;;;;;;;5064495;28;20021;-41
2022/09/28 04:57:08;;;;;;;1.58;0.82;;;;;;;;;;5064777;28;20024;-41
2022/09/28 04:59:35;;;;;;;1.63;0.63;;;;;;;;;;5064773;28;20021;-41
2022/09/28 05:02:03;;;;;;;1.30;0.70;;;;;;;;;;5065340;28;20016;-41
2022/09/28 05:04:29;;;;;;;1.27;0.47;;;;;;;;;;5064297;28;20471;-41
2022/09/28 05:06:56;;;;;;;1.38;0.60;;;;;;;;;;5064775;28;20025;-41
2022/09/28 05:09:22;;;;;;;2.63;0.77;;;;;;;;;;5064245;28;20488;-41
2022/09/28 05:11:51;;;;;;;1.48;0.70;;;;;;;;;;5064545;28;20031;-41
2022/09/28 05:14:23;;;;;;;1.77;0.60;;;;;;;;;;5064262;28;20031;-41
2022/09/28 05:16:49;;;;;;;2.83;1.17;;;;;;;;;;5064477;28;20020;-41
2022/09/28 05:19:16;;;;;;;2.38;0.70;;;;;;;;;;5067256;28;20032;-41
2022/09/28 05:21:45;;;;;;;1.00;0.60;;;;;;;;;;5068260;28;20039;-41
2022/09/28 05:24:11;;;;;;;1.60;0.65;;;;;;;;;;5068548;28;20020;-41
2022/09/28 05:26:38;;;;;;;2.72;0.70;;;;;;;;;;5068325;28;20082;-41
2022/09/28 05:29:04;;;;;;;1.00;0.38;;;;;;;;;;5068423;28;20089;-41
2022/09/28 05:31:31;;;;;;;2.20;0.63;;;;;;;;;;5068311;28;20491;-41
2022/09/28 05:33:58;;;;;;;2.38;0.65;;;;;;;;;;5069253;28;20091;-41
2022/09/28 05:36:26;;;;;;;0.70;0.40;;;;;;;;;;5079980;28;20029;-41
2022/09/28 05:38:52;;;;;;;1.38;0.70;;;;;;;;;;5068889;28;20074;-41
2022/09/28 05:41:18;;;;;;;1.10;0.57;;;;;;;;;;5084407;28;20028;-41
2022/09/28 05:43:44;;;;;;;2.03;0.73;;;;;;;;;;5090125;28;20035;-41
2022/09/28 05:46:10;;;;;;;0.57;0.40;;;;;;;;;;5089343;28;20052;-41
2022/09/28 05:48:36;;;;;;;1.63;0.80;;;;;;;;;;5079129;28;20437;-41
2022/09/28 05:51:02;;;;;;;1.42;0.50;;;;;;;;;;5089418;28;20024;-41
2022/09/28 05:53:29;;;;;;;1.60;0.50;;;;;;;;;;5073865;28;20691;-41
2022/09/28 05:55:58;;;;;;;2.92;0.70;;;;;;;;;;5069327;28;20393;-41
2022/09/28 05:58:24;;;;;;;0.93;0.50;;;;;;;;;;5068891;28;20020;-41
2022/09/28 06:00:54;;;;;;;1.25;0.57;;;;;;;;;;5076370;28;20032;-41
2022/09/28 06:03:20;;;;;;;1.27;0.60;;;;;;;;;;5089282;28;20077;-41
2022/09/28 06:05:46;;;;;;;2.38;0.60;;;;;;;;;;5090134;28;20410;-41
2022/09/28 06:08:12;;;;;;;3.35;0.52;;;;;;;;;;5089173;28;20479;-41
2022/09/28 06:10:39;;;;;;;1.83;0.70;;;;;;;;;;5087589;28;20039;-41
2022/09/28 06:13:06;;;;;;;2.13;0.38;;;;;;;;;;5072989;28;20063;-41
2022/09/28 06:15:33;;;;;;;0.80;0.57;;;;;;;;;;5068531;28;20024;-41
2022/09/28 06:18:10;;;;;;;0.75;0.50;;;;;;;;;;5068936;28;20016;-41
2022/09/28 06:20:37;;;;;;;0.93;0.40;;;;;;;;;;5068513;28;20491;-41
2022/09/28 06:23:04;;;;;;;1.15;0.60;;;;;;;;;;5076814;28;20621;-41
2022/09/28 06:25:30;;;;;;;1.15;0.50;;;;;;;;;;5068641;28;20078;-41
2022/09/28 06:28:03;;;;;;;0.77;0.60;;;;;;;;;;5073182;28;20773;-41
2022/09/28 06:30:30;;;;;;;0.60;0.43;;;;;;;;;;5087078;28;20040;-41
2022/09/28 06:32:57;;;;;;;0.75;0.43;;;;;;;;;;5088983;28;20031;-41
2022/09/28 06:35:25;;;;;;;0.50;0.50;;;;;;;;;;5087860;28;20020;-41
2022/09/28 06:37:52;;;;;;;2.45;0.60;;;;;;;;;;5086553;28;20060;-41
2022/09/28 06:40:18;;;;;;;0.57;0.43;;;;;;;;;;5081013;28;20028;-41
2022/09/28 06:42:44;;;;;;;1.77;0.50;;;;;;;;;;5075579;28;20032;-41
2022/09/28 06:45:10;;;;;;;1.70;0.50;;;;;;;;;;5082693;28;20089;-41
2022/09/28 06:47:37;;;;;;;1.17;0.40;;;;;;;;;;5083585;28;20036;-41
2022/09/28 06:50:11;;;;;;;1.13;0.43;;;;;;;;;;5079820;28;20034;-41
2022/09/28 06:52:37;;;;;;;1.50;0.60;;;;;;;;;;5067718;28;20071;-41
2022/09/28 06:55:03;;;;;;;1.45;0.60;;;;;;;;;;5082201;28;20032;-41
2022/09/28 06:57:30;;;;;;;1.20;0.47;;;;;;;;;;5073516;28;20032;-41
2022/09/28 06:59:57;;;;;;;1.88;0.50;;;;;;;;;;5082264;28;20028;-39
2022/09/28 07:02:23;;;;;;;1.15;0.50;;;;;;;;;;5087615;28;20024;-39
2022/09/28 07:04:49;;;;;;;1.23;0.52;;;;;;;;;;5086175;28;20024;-39
2022/09/28 07:07:15;;;;;;;1.38;0.60;;;;;;;;;;5086845;28;20032;-39
2022/09/28 07:09:42;;;;;;;0.80;0.47;;;;;;;;;;5085548;28;20038;-39
2022/09/28 07:12:12;;;;;;;1.35;0.30;;;;;;;;;;5070385;28;20028;-39
2022/09/28 07:14:38;;;;;;;1.08;0.40;;;;;;;;;;5076476;28;20498;-41
2022/09/28 07:17:07;;;;;;;1.30;0.50;;;;;;;;;;5068349;28;20024;-41
2022/09/28 07:19:35;;;;;;;1.13;0.60;;;;;;;;;;5069143;28;20066;-41
2022/09/28 07:22:01;;;;;;;0.45;0.45;;;;;;;;;;5087994;28;20020;-41
2022/09/28 07:24:29;;;;;;;0.40;0.40;;;;;;;;;;5087496;28;20020;-41
2022/09/28 07:26:56;;;;;;;0.70;0.45;;;;;;;;;;5086856;28;20020;-41
2022/09/28 07:29:22;;;;;;;0.98;0.50;;;;;;;;;;5085972;28;20036;-41
2022/09/28 07:31:48;;;;;;;0.52;0.50;;;;;;;;;;5086963;28;20145;-41
2022/09/28 07:34:14;;;;;;;2.50;0.55;;;;;;;;;;5086272;28;20500;-41
2022/09/28 07:36:40;;;;;;;0.73;0.50;;;;;;;;;;5085730;28;20034;-41
2022/09/28 07:39:06;;;;;;;1.50;0.50;;;;;;;;;;5086072;28;20058;-41
2022/09/28 07:41:32;;;;;;;1.65;0.60;;;;;;;;;;5084846;28;20116;-41
2022/09/28 07:44:04;;;;;;;2.00;0.65;;;;;;;;;;5086220;28;20024;-41
2022/09/28 07:46:37;;;;;;;1.15;0.60;;;;;;;;;;5074418;28;20031;-41
2022/09/28 07:49:06;;;;;;;0.80;0.50;;;;;;;;;;5065716;28;20415;-41
2022/09/28 07:51:32;;;;;;;2.17;0.68;;;;;;;;;;5065231;28;20036;-41
2022/09/28 07:53:59;;;;;;;1.63;0.70;;;;;;;;;;5065397;28;20016;-41
2022/09/28 07:56:25;;;;;;;2.30;0.40;;;;;;;;;;5065130;28;20511;-41
2022/09/28 07:58:51;;;;;;;0.98;0.50;;;;;;;;;;5065799;28;20039;-41
2022/09/28 08:01:18;;;;;;;0.45;0.32;;;;;;;;;;5065944;28;20036;-41
2022/09/28 08:03:46;;;;;;;0.90;0.47;;;;;;;;;;5065322;28;20021;-41
2022/09/28 08:06:14;;;;;;;2.75;0.50;;;;;;;;;;5065607;28;20028;-41
2022/09/28 08:08:43;;;;;;;1.60;0.40;;;;;;;;;;5071420;28;20023;-41
2022/09/28 08:11:13;;;;;;;0.40;0.40;;;;;;;;;;5085487;28;20097;-41
2022/09/28 08:13:40;;;;;;;0.73;0.50;;;;;;;;;;5085063;28;20485;-41
2022/09/28 08:16:07;;;;;;;0.73;0.50;;;;;;;;;;5085443;28;20028;-41
2022/09/28 08:18:34;;;;;;;1.20;0.40;;;;;;;;;;5085617;28;20019;-41
2022/09/28 08:23:46;;;;;;;1.35;0.60;;;;;;;;;;5086343;28;20062;-41
2022/09/28 08:26:12;;;;;;;1.10;0.30;;;;;;;;;;5085435;28;20040;-41
2022/09/28 08:28:39;;;;;;;1.35;0.50;;;;;;;;;;5084475;28;20395;-41
2022/09/28 08:31:06;;;;;;;0.43;0.35;;;;;;;;;;5085138;28;20025;-41
2022/09/28 08:33:32;;;;;;;1.90;0.50;;;;;;;;;;5084805;28;20768;-41
2022/09/28 08:35:59;;;;;;;0.47;0.30;;;;;;;;;;5085180;28;20024;-39
2022/09/28 08:38:26;;;;;;;0.47;0.30;;;;;;;;;;5084813;28;20031;-39
2022/09/28 08:41:11;;;;;;;0.43;0.40;;;;;;;;;;5085119;28;20039;-39
2022/09/28 08:43:49;;;;;;;0.40;0.40;;;;;;;;;;5084518;28;20390;-39
2022/09/28 08:46:16;;;;;;;0.57;0.30;;;;;;;;;;5085716;28;20039;-39
2022/09/28 08:48:52;;;;;;;0.73;0.52;;;;;;;;;;5084785;28;20032;-39
2022/09/28 08:51:25;;;;;;;0.47;0.40;;;;;;;;;;5085890;28;20391;-39
2022/09/28 08:53:58;;;;;;;0.52;0.22;;;;;;;;;;5084368;28;20020;-39
2022/09/28 08:56:27;;;;;;;0.90;0.32;;;;;;;;;;5084689;28;20247;-39
2022/09/28 08:58:56;;;;;;;0.40;0.30;;;;;;;;;;5084624;28;20515;-39
2022/09/28 09:01:26;;;;;;;0.43;0.30;;;;;;;;;;5084773;28;20034;-39
2022/09/28 09:03:53;;;;;;;0.35;0.35;;;;;;;;;;5084812;28;20031;-39
2022/09/28 09:06:32;;;;;;;0.47;0.35;;;;;;;;;;5083038;28;20145;-39
2022/09/28 09:09:18;;;;;;;0.90;0.47;;;;;;;;;;5084855;28;20028;-39
2022/09/28 09:11:55;;;;;;;0.98;0.60;;;;;;;;;;5084894;28;20024;-39
2022/09/28 09:14:39;;;;;;;0.55;0.40;;;;;;;;;;5084560;28;20082;-39
2022/09/28 09:17:14;;;;;;;0.82;0.50;;;;;;;;;;5084874;28;20030;-39
2022/09/28 09:19:41;;;;;;;0.45;0.30;;;;;;;;;;5084186;28;20016;-39
2022/09/28 09:22:37;;;;;;;1.08;0.30;;;;;;;;;;5084724;28;20114;-39
2022/09/28 09:25:17;;;;;;;2.88;0.50;;;;;;;;;;5047157;28;20068;-39
2022/09/28 09:27:52;;;;;;;1.15;0.47;;;;;;;;;;5084041;28;20528;-39
2022/09/28 09:30:21;;;;;;;2.05;0.70;;;;;;;;;;5085194;28;20035;-39
2022/09/28 09:32:53;;;;;;;1.08;0.60;;;;;;;;;;5085122;28;20692;-39
2022/09/28 09:35:19;;;;;;;1.13;0.57;;;;;;;;;;5084711;28;20059;-39
2022/09/28 09:37:58;;;;;;;1.10;0.63;;;;;;;;;;5085060;28;20052;-39
2022/09/28 09:40:24;;;;;;;0.40;0.40;;;;;;;;;;5083373;28;20046;-39
2022/09/28 09:43:13;;;;;;;0.52;0.40;;;;;;;;;;5085129;28;20020;-39
2022/09/28 09:45:42;;;;;;;0.52;0.50;;;;;;;;;;5072270;28;20033;-39
2022/09/28 09:48:21;;;;;;;0.77;0.50;;;;;;;;;;5064047;28;20423;-39
2022/09/28 09:50:49;;;;;;;1.55;0.50;;;;;;;;;;5064786;28;20514;-39
2022/09/28 09:53:18;;;;;;;0.70;0.40;;;;;;;;;;5064118;28;20028;-39
2022/09/28 09:55:49;;;;;;;0.50;0.47;;;;;;;;;;5064265;28;20040;-39
2022/09/28 09:58:15;;;;;;;0.52;0.43;;;;;;;;;;5064352;28;20042;-39
2022/09/28 10:00:44;;;;;;;0.75;0.50;;;;;;;;;;5063705;28;20025;-39
2022/09/28 10:03:16;;;;;;;1.25;0.52;;;;;;;;;;5063835;28;20159;-39
2022/09/28 10:05:44;;;;;;;1.75;0.60;;;;;;;;;;5065323;28;20036;-39
2022/09/28 10:08:14;;;;;;;0.73;0.40;;;;;;;;;;5067562;28;20037;-39
2022/09/28 10:11:00;;;;;;;1.27;0.50;;;;;;;;;;5067101;28;20036;-39
2022/09/28 10:13:28;;;;;;;0.75;0.40;;;;;;;;;;5056398;28;20029;-39
2022/09/28 10:15:55;;;;;;;0.93;0.60;;;;;;;;;;5067410;28;20444;-39
2022/09/28 10:18:21;;;;;;;1.17;0.45;;;;;;;;;;5066825;28;20021;-39
2022/09/28 10:20:48;;;;;;;0.65;0.52;;;;;;;;;;5067981;28;20063;-39
2022/09/28 10:23:22;;;;;;;1.25;0.50;;;;;;;;;;5067314;28;20048;-39
2022/09/28 10:25:50;;;;;;;1.52;0.77;;;;;;;;;;5068014;28;20032;-39
2022/09/28 10:28:21;;;;;;;1.40;0.60;;;;;;;;;;5067827;28;20264;-39
2022/09/28 10:30:47;;;;;;;0.65;0.50;;;;;;;;;;5067736;28;20034;-39
2022/09/28 10:33:32;;;;;;;1.23;0.57;;;;;;;;;;5066862;28;20099;-39
2022/09/28 10:36:02;;;;;;;0.65;0.47;;;;;;;;;;5067193;28;20032;-39
2022/09/28 10:38:29;;;;;;;1.35;0.52;;;;;;;;;;5066854;28;20031;-39
2022/09/28 10:40:58;;;;;;;0.47;0.40;;;;;;;;;;5066841;28;20032;-39
2022/09/28 10:43:24;;;;;;;0.65;0.47;;;;;;;;;;5066436;28;20056;-39
2022/09/28 10:46:00;;;;;;;0.55;0.38;;;;;;;;;;5067222;28;20029;-39
2022/09/28 10:48:27;;;;;;;0.95;0.50;;;;;;;;;;5066296;28;20032;-39
2022/09/28 10:51:00;;;;;;;2.85;0.50;;;;;;;;;;5066756;28;20039;-39
2022/09/28 10:53:26;;;;;;;0.40;0.40;;;;;;;;;;5066355;28;20149;-39
2022/09/28 10:56:02;;;;;;;0.38;0.30;;;;;;;;;;5066687;28;20025;-39
2022/09/28 10:58:36;;;;;;;0.75;0.50;;;;;;;;;;5066448;28;20514;-39
2022/09/28 11:01:08;;;;;;;0.80;0.40;;;;;;;;;;5066582;28;20024;-39
2022/09/28 11:03:37;;;;;;;0.30;0.30;;;;;;;;;;5065996;28;20509;-39
2022/09/28 11:06:05;;;;;;;0.80;0.47;;;;;;;;;;5066543;28;20025;-39
2022/09/28 11:08:33;;;;;;;0.40;0.40;;;;;;;;;;5066150;28;20028;-39
2022/09/28 11:11:10;;;;;;;0.68;0.43;;;;;;;;;;5066650;28;20060;-39
2022/09/28 11:13:40;;;;;;;0.73;0.40;;;;;;;;;;5066313;28;20056;-39
2022/09/28 11:16:08;;;;;;;0.77;0.38;;;;;;;;;;5065860;28;20543;-39
2022/09/28 11:18:34;;;;;;;0.60;0.50;;;;;;;;;;5065966;28;20149;-39
2022/09/28 11:21:12;;;;;;;1.23;0.50;;;;;;;;;;5066651;28;20028;-39
2022/09/28 11:23:40;;;;;;;1.35;0.30;;;;;;;;;;5065608;28;20036;-39
2022/09/28 11:26:08;;;;;;;0.95;0.45;;;;;;;;;;5066141;28;20093;-39
2022/09/28 11:28:40;;;;;;;0.40;0.30;;;;;;;;;;5065660;28;20043;-39
2022/09/28 11:31:07;;;;;;;0.82;0.50;;;;;;;;;;5066153;28;20024;-39
2022/09/28 11:33:35;;;;;;;1.80;0.40;;;;;;;;;;5065594;28;20127;-39
2022/09/28 11:36:19;;;;;;;0.40;0.40;;;;;;;;;;5066269;28;20029;-39
2022/09/28 11:38:54;;;;;;;0.93;0.60;;;;;;;;;;5068159;28;20116;-39
2022/09/28 11:41:39;;;;;;;1.17;0.40;;;;;;;;;;5086824;28;20340;-39
2022/09/28 11:44:07;;;;;;;1.20;0.45;;;;;;;;;;5079092;28;20021;-39
2022/09/28 11:46:33;;;;;;;0.57;0.35;;;;;;;;;;5065526;28;20039;-39
2022/09/28 11:49:02;;;;;;;1.70;0.50;;;;;;;;;;5065622;28;20024;-39
2022/09/28 11:51:31;;;;;;;0.73;0.40;;;;;;;;;;5065111;28;20040;-39
2022/09/28 11:54:00;;;;;;;0.75;0.73;;;;;;;;;;5065462;28;20094;-39
2022/09/28 11:56:31;;;;;;;1.15;0.40;;;;;;;;;;5073986;28;20452;-39
2022/09/28 11:59:05;;;;;;;0.30;0.30;;;;;;;;;;5065734;28;20424;-39
2022/09/28 12:01:37;;;;;;;0.83;0.40;;;;;;;;;;5074711;28;20028;-39
2022/09/28 12:04:14;;;;;;;0.95;0.50;;;;;;;;;;5087188;28;20020;-39
2022/09/28 12:06:44;;;;;;;0.35;0.30;;;;;;;;;;5085553;28;20459;-39
2022/09/28 12:09:24;;;;;;;1.58;0.60;;;;;;;;;;5082447;28;20031;-41
2022/09/28 12:11:54;;;;;;;0.43;0.40;;;;;;;;;;5070121;28;20033;-41
2022/09/28 12:14:26;;;;;;;1.05;0.60;;;;;;;;;;5070123;28;20063;-41
2022/09/28 12:17:21;;;;;;;0.60;0.40;;;;;;;;;;5070602;28;20077;-41
2022/09/28 12:19:49;;;;;;;0.75;0.47;;;;;;;;;;5061404;28;20051;-41
2022/09/28 12:22:23;;;;;;;0.77;0.57;;;;;;;;;;5078234;28;20085;-41
2022/09/28 12:24:50;;;;;;;0.65;0.40;;;;;;;;;;5085995;28;20107;-42
2022/09/28 12:27:49;;;;;;;0.40;0.40;;;;;;;;;;5084177;28;20054;-41
2022/09/28 12:30:24;;;;;;;0.30;0.30;;;;;;;;;;5051318;28;20507;-40
2022/09/28 12:32:52;;;;;;;0.20;0.20;;;;;;;;;;5086836;28;21159;-41
2022/09/28 12:35:35;;;;;;;0.50;0.30;;;;;;;;;;5087772;28;20028;-41
2022/09/28 12:38:10;;;;;;;0.40;0.40;;;;;;;;;;5086386;28;20027;-41
2022/09/28 12:40:37;;;;;;;1.05;0.47;;;;;;;;;;5085287;28;20028;-41
2022/09/28 12:43:16;;;;;;;0.40;0.30;;;;;;;;;;5085985;28;20501;-41
2022/09/28 12:46:12;;;;;;;0.50;0.40;;;;;;;;;;5086609;28;20028;-41
2022/09/28 12:48:38;;;;;;;0.40;0.40;;;;;;;;;;5085460;28;20035;-41
2022/09/28 12:51:10;;;;;;;0.28;0.28;;;;;;;;;;5087025;28;20036;-41
2022/09/28 12:53:43;;;;;;;0.40;0.40;;;;;;;;;;5085339;28;20784;-41
2022/09/28 12:56:41;;;;;;;0.73;0.40;;;;;;;;;;5086752;28;20027;-41
2022/09/28 12:59:18;;;;;;;1.02;0.60;;;;;;;;;;5051439;28;20044;-41
2022/09/28 13:02:03;;;;;;;0.32;0.30;;;;;;;;;;5086688;28;20047;-41
2022/09/28 13:04:43;;;;;;;1.55;0.30;;;;;;;;;;5085810;28;20058;-41
2022/09/28 13:07:32;;;;;;;0.55;0.50;;;;;;;;;;5086124;28;20057;-41
2022/09/28 13:10:17;;;;;;;0.70;0.40;;;;;;;;;;5085693;28;20039;-40
2022/09/28 13:13:05;;;;;;;2.08;0.80;;;;;;;;;;5085439;28;20055;-41
2022/09/28 13:15:39;;;;;;;2.65;0.60;;;;;;;;;;5065554;28;20052;-41
2022/09/28 13:18:16;;;;;;;0.40;0.40;;;;;;;;;;5079157;28;20036;-41
2022/09/28 13:20:45;;;;;;;0.63;0.40;;;;;;;;;;5065371;28;20116;-42
2022/09/28 13:23:20;;;;;;;1.33;0.52;;;;;;;;;;5081525;28;20107;-41
2022/09/28 13:25:52;;;;;;;1.42;0.35;;;;;;;;;;5084931;28;20024;-41
2022/09/28 13:28:20;;;;;;;0.63;0.43;;;;;;;;;;5081811;28;20031;-40
2022/09/28 13:30:46;;;;;;;0.88;0.45;;;;;;;;;;5074966;28;20043;-40
2022/09/28 13:33:16;;;;;;;0.85;0.40;;;;;;;;;;5083801;28;20034;-40
2022/09/28 13:35:43;;;;;;;0.30;0.30;;;;;;;;;;5085421;28;20545;-40
2022/09/28 13:38:15;;;;;;;0.32;0.22;;;;;;;;;;5082656;28;20034;-40
2022/09/28 13:40:59;;;;;;;0.68;0.30;;;;;;;;;;5087140;28;20103;-40
2022/09/28 13:43:32;;;;;;;0.50;0.22;;;;;;;;;;5087254;28;20516;-40
2022/09/28 13:46:00;;;;;;;0.52;0.38;;;;;;;;;;5089163;28;20024;-40
2022/09/28 13:48:43;;;;;;;1.33;0.40;;;;;;;;;;5086660;28;20072;-40
2022/09/28 13:51:15;;;;;;;0.40;0.40;;;;;;;;;;5088963;28;20054;-40
2022/09/28 13:53:41;;;;;;;1.20;0.57;;;;;;;;;;5086844;28;20473;-40
2022/09/28 13:56:13;;;;;;;1.65;0.50;;;;;;;;;;5088962;28;20034;-40
2022/09/28 13:58:44;;;;;;;0.35;0.35;;;;;;;;;;5086827;28;20097;-41
2022/09/28 14:01:13;;;;;;;0.20;0.20;;;;;;;;;;5089316;28;20097;-40
2022/09/28 14:03:52;;;;;;;0.40;0.30;;;;;;;;;;5082351;28;20032;-40
2022/09/28 14:06:29;;;;;;;0.57;0.32;;;;;;;;;;5069383;28;20560;-40
2022/09/28 14:09:15;;;;;;;0.30;0.30;;;;;;;;;;5083399;28;20032;-41
2022/09/28 14:11:52;;;;;;;0.40;0.40;;;;;;;;;;5088241;28;20534;-41
2022/09/28 14:14:37;;;;;;;0.85;0.40;;;;;;;;;;5087855;28;20032;-41
2022/09/28 14:17:18;;;;;;;0.30;0.30;;;;;;;;;;5088178;28;20031;-41
2022/09/28 14:19:46;;;;;;;0.50;0.32;;;;;;;;;;5079340;28;20024;-41
2022/09/28 14:22:15;;;;;;;0.45;0.30;;;;;;;;;;5077972;28;20431;-41
2022/09/28 14:24:47;;;;;;;1.08;0.45;;;;;;;;;;5086684;28;20024;-41
2022/09/28 14:27:13;;;;;;;0.60;0.50;;;;;;;;;;5085130;28;20024;-41
2022/09/28 14:29:40;;;;;;;1.05;0.40;;;;;;;;;;5082677;28;20055;-42
2022/09/28 14:32:08;;;;;;;0.60;0.30;;;;;;;;;;5084484;28;20071;-42
2022/09/28 14:34:37;;;;;;;0.40;0.40;;;;;;;;;;5086864;28;20031;-42
2022/09/28 14:42:34;;;;;;;0.38;0.38;;;;;;;;;;5082631;28;20032;-41
2022/09/28 14:45:06;;;;;;;0.20;0.20;;;;;;;;;;5086190;28;20056;-42
2022/09/28 14:47:36;;;;;;;0.30;0.30;;;;;;;;;;5087081;28;20031;-42
2022/09/28 14:50:18;;;;;;;0.30;0.30;;;;;;;;;;5087312;28;20101;-42
2022/09/28 14:52:50;;;;;;;0.70;0.30;;;;;;;;;;5085204;28;20097;-42
2022/09/28 14:55:18;;;;;;;0.20;0.20;;;;;;;;;;5087484;28;20024;-41
2022/09/28 14:57:51;;;;;;;0.30;0.20;;;;;;;;;;5086730;28;20107;-41
2022/09/28 15:00:21;;;;;;;0.10;0.10;;;;;;;;;;5087717;28;20028;-41
2022/09/28 15:02:51;;;;;;;0.30;0.20;;;;;;;;;;5087069;28;20047;-42
2022/09/28 15:05:26;;;;;;;1.75;0.30;;;;;;;;;;5087172;28;20115;-42
2022/09/28 15:07:53;;;;;;;0.40;0.40;;;;;;;;;;5086500;28;20044;-41
2022/09/28 15:10:33;;;;;;;0.20;0.20;;;;;;;;;;5087172;28;20028;-43
2022/09/28 15:13:00;;;;;;;0.20;0.20;;;;;;;;;;5086318;28;20028;-43
2022/09/28 15:15:34;;;;;;;0.30;0.30;;;;;;;;;;5086853;28;20024;-41